1885 NOT_NAMED (1885355S10068)


IBTrACS version v04r00. Visit IBTrACS website for data access.
Please direct all questions to the IBTrACS Q and A forum

Storm track - Intensity - Wind Radii - Intensity Data - Source Data - All data

Summary Information

Storm ID 1885355S10068
Start Dec 21 06Z
End Dec 31 06Z
ATCF IDs
Track status Best track data.

Storm track plot

Map of storm track

Intensity plots

No Intensity information for this storm


Radial wind information

No radial wind information for this storm


Position and Intensity Table

BASIN ISO_TIME_________ NATURE LAT LON
degrees north degrees east
SI 1885-12-21 06:00:00 NR -9.90 68.00
SI 09:00:00 NR -10.12 67.35
SI 12:00:00 NR -10.34 66.71
SI 15:00:00 NR -10.56 66.07
SI 18:00:00 NR -10.76 65.46
SI 21:00:00 NR -10.96 64.87
SI 1885-12-22 00:00:00 NR -11.15 64.31
SI 03:00:00 NR -11.33 63.78
SI 06:00:00 NR -11.50 63.30
SI 09:00:00 NR -11.65 62.86
SI 12:00:00 NR -11.80 62.47
SI 15:00:00 NR -11.93 62.11
SI 18:00:00 NR -12.06 61.77
SI 21:00:00 NR -12.19 61.45
SI 1885-12-23 00:00:00 NR -12.32 61.14
SI 03:00:00 NR -12.46 60.82
SI 06:00:00 NR -12.60 60.50
SI 09:00:00 NR -12.76 60.12
SI 12:00:00 NR -12.92 59.74
SI 15:00:00 NR -13.08 59.35
SI 18:00:00 NR -13.26 58.97
SI 21:00:00 NR -13.43 58.59
SI 1885-12-24 00:00:00 NR -13.62 58.21
SI 03:00:00 NR -13.81 57.85
SI 06:00:00 NR -14.00 57.50
SI 09:00:00 NR -14.19 57.16
SI 12:00:00 NR -14.39 56.83
SI 15:00:00 NR -14.60 56.51
SI 18:00:00 NR -14.81 56.20
SI 21:00:00 NR -15.03 55.91
SI 1885-12-25 00:00:00 NR -15.25 55.62
SI 03:00:00 NR -15.47 55.36
SI 06:00:00 NR -15.70 55.10
SI 09:00:00 NR -15.92 54.84
SI 12:00:00 NR -16.15 54.59
SI 15:00:00 NR -16.38 54.36
SI 18:00:00 NR -16.61 54.14
SI 21:00:00 NR -16.85 53.93
SI 1885-12-26 00:00:00 NR -17.10 53.74
SI 03:00:00 NR -17.34 53.56
SI 06:00:00 NR -17.60 53.40
SI 09:00:00 NR -17.84 53.23
SI 12:00:00 NR -18.09 53.08
SI 15:00:00 NR -18.34 52.94
SI 18:00:00 NR -18.60 52.82
SI 21:00:00 NR -18.88 52.72
SI 1885-12-27 00:00:00 NR -19.17 52.63
SI 03:00:00 NR -19.47 52.56
SI 06:00:00 NR -19.80 52.50
SI 09:00:00 NR -20.14 52.41
SI 12:00:00 NR -20.49 52.34
SI 15:00:00 NR -20.87 52.28
SI 18:00:00 NR -21.26 52.25
SI 21:00:00 NR -21.67 52.25
SI 1885-12-28 00:00:00 NR -22.10 52.29
SI 03:00:00 NR -22.54 52.37
SI 06:00:00 NR -23.00 52.50
SI 09:00:00 NR -23.44 52.61
SI 12:00:00 NR -23.90 52.76
SI 15:00:00 NR -24.37 52.96
SI 18:00:00 NR -24.86 53.21
SI 21:00:00 NR -25.37 53.54
SI 1885-12-29 00:00:00 NR -25.89 53.94
SI 03:00:00 NR -26.44 54.42
SI 06:00:00 NR -27.00 55.00
SI 09:00:00 NR -27.64 55.76
SI 12:00:00 NR -28.32 56.64
SI 15:00:00 NR -29.00 57.60
SI 18:00:00 NR -29.66 58.61
SI 21:00:00 NR -30.30 59.65
SI 1885-12-30 00:00:00 NR -30.90 60.67
SI 03:00:00 NR -31.44 61.63
SI 06:00:00 NR -31.90 62.50
SI 09:00:00 NR -32.28 63.25
SI 12:00:00 NR -32.59 63.88
SI 15:00:00 NR -32.83 64.41
SI 18:00:00 NR -33.03 64.85
SI 21:00:00 NR -33.18 65.22
SI 1885-12-31 00:00:00 NR -33.30 65.54
SI 03:00:00 NR -33.41 65.83
SI 06:00:00 NR -33.50 66.10

Source Information

Agency Information
USA
TOKYO
CMA
HKO
NEWDELHI
REUNION WMO-Best-Tracks.txt:Line=1443:xxxx885211
BOM
NADI
WELLINGTON
DS824
TD9636
TD9635
NEUMANN
MLC

All available IBTrACS Data

SEASON BASIN SUBBASIN ISO_TIME_________ NATURE LAT LON WMO AGENCY DIST2LAND LANDFALL IFLAG USA SSHS REUNION LAT REUNION LON REUNION TYPE REUNION TNUM STORM SPEED STORM DIR
Year degrees north degrees east km km 1 degrees north degrees east 1 kts degrees
1886 SI MM 1885-12-21 06:00:00 NR -9.90 68.00 reunion 1588 1527 _____O________ -1 -9.90 68.00 99 9.90 14 251
1886 SI MM 09:00:00 NR -10.12 67.35 1527 1460 _____P________ -1 -10.12 67.35 99 14 251
1886 SI MM 12:00:00 NR -10.34 66.71 1460 1401 _____P________ -1 -10.34 66.71 99 13 251
1886 SI MM 15:00:00 NR -10.56 66.07 1392 1334 _____P________ -1 -10.56 66.07 99 13 251
1886 SI MM 18:00:00 NR -10.76 65.46 1334 1277 _____P________ -1 -10.76 65.46 99 13 251
1886 SI MM 21:00:00 NR -10.96 64.87 1277 1230 _____P________ -1 -10.96 64.87 99 12 251
1886 SI MM 1885-12-22 00:00:00 NR -11.15 64.31 1220 1181 _____P________ -1 -11.15 64.31 99 11 251
1886 SI MM 03:00:00 NR -11.33 63.78 1181 1133 _____P________ -1 -11.33 63.78 99 10 251
1886 SI MM 06:00:00 NR -11.50 63.30 reunion 1133 1101 _____O________ -1 -11.50 63.30 99 9.90 10 250
1886 SI MM 09:00:00 NR -11.65 62.86 1092 1061 _____P________ -1 -11.65 62.86 99 9 250
1886 SI MM 12:00:00 NR -11.80 62.47 1061 1031 _____P________ -1 -11.80 62.47 99 8 249
1886 SI MM 15:00:00 NR -11.93 62.11 1031 996 _____P________ -1 -11.93 62.11 99 7 249
1886 SI MM 18:00:00 NR -12.06 61.77 996 972 _____P________ -1 -12.06 61.77 99 7 248
1886 SI MM 21:00:00 NR -12.19 61.45 968 949 _____P________ -1 -12.19 61.45 99 7 247
1886 SI MM 1885-12-23 00:00:00 NR -12.32 61.14 945 923 _____P________ -1 -12.32 61.14 99 7 247
1886 SI MM 03:00:00 NR -12.46 60.82 912 890 _____P________ -1 -12.46 60.82 99 7 246
1886 SI MM 06:00:00 NR -12.60 60.50 reunion 890 866 _____O________ -1 -12.60 60.50 99 9.90 7 246
1886 SI MM 09:00:00 NR -12.76 60.12 856 836 _____P________ -1 -12.76 60.12 99 8 247
1886 SI MM 12:00:00 NR -12.92 59.74 833 804 _____P________ -1 -12.92 59.74 99 8 246
1886 SI MM 15:00:00 NR -13.08 59.35 804 784 _____P________ -1 -13.08 59.35 99 8 246
1886 SI MM 18:00:00 NR -13.26 58.97 773 755 _____P________ -1 -13.26 58.97 99 8 245
1886 SI MM 21:00:00 NR -13.43 58.59 755 729 _____P________ -1 -13.43 58.59 99 8 244
1886 SI MM 1885-12-24 00:00:00 NR -13.62 58.21 729 705 _____P________ -1 -13.62 58.21 99 8 243
1886 SI MM 03:00:00 NR -13.81 57.85 705 682 _____P________ -1 -13.81 57.85 99 8 241
1886 SI MM 06:00:00 NR -14.00 57.50 reunion 682 660 _____O________ -1 -14.00 57.50 99 9.90 8 240
1886 SI MM 09:00:00 NR -14.19 57.16 660 641 _____P________ -1 -14.19 57.16 99 8 239
1886 SI MM 12:00:00 NR -14.39 56.83 642 622 _____P________ -1 -14.39 56.83 99 8 237
1886 SI MM 15:00:00 NR -14.60 56.51 624 606 _____P________ -1 -14.60 56.51 99 7 235
1886 SI MM 18:00:00 NR -14.81 56.20 608 580 _____P________ -1 -14.81 56.20 99 7 234
1886 SI MM 21:00:00 NR -15.03 55.91 580 547 _____P________ -1 -15.03 55.91 99 7 232
1886 SI MM 1885-12-25 00:00:00 NR -15.25 55.62 547 525 _____P________ -1 -15.25 55.62 99 7 230
1886 SI MM 03:00:00 NR -15.47 55.36 525 494 _____P________ -1 -15.47 55.36 99 7 228
1886 SI MM 06:00:00 NR -15.70 55.10 reunion 494 473 _____O________ -1 -15.70 55.10 99 9.90 7 228
1886 SI MM 09:00:00 NR -15.92 54.84 463 445 _____P________ -1 -15.92 54.84 99 7 228
1886 SI MM 12:00:00 NR -16.15 54.59 445 429 _____P________ -1 -16.15 54.59 99 7 226
1886 SI MM 15:00:00 NR -16.38 54.36 431 407 _____P________ -1 -16.38 54.36 99 6 223
1886 SI MM 18:00:00 NR -16.61 54.14 407 395 _____P________ -1 -16.61 54.14 99 6 221
1886 SI MM 21:00:00 NR -16.85 53.93 400 390 _____P________ -1 -16.85 53.93 99 6 218
1886 SI MM 1885-12-26 00:00:00 NR -17.10 53.74 390 385 _____P________ -1 -17.10 53.74 99 6 216
1886 SI MM 03:00:00 NR -17.34 53.56 389 379 _____P________ -1 -17.34 53.56 99 6 213
1886 SI MM 06:00:00 NR -17.60 53.40 reunion 384 377 _____O________ -1 -17.60 53.40 99 9.90 6 212
1886 SI MM 09:00:00 NR -17.84 53.23 377 375 _____P________ -1 -17.84 53.23 99 6 212
1886 SI MM 12:00:00 NR -18.09 53.08 379 369 _____P________ -1 -18.09 53.08 99 6 209
1886 SI MM 15:00:00 NR -18.34 52.94 365 360 _____P________ -1 -18.34 52.94 99 6 205
1886 SI MM 18:00:00 NR -18.60 52.82 361 354 _____P________ -1 -18.60 52.82 99 6 202
1886 SI MM 21:00:00 NR -18.88 52.72 356 343 _____P________ -1 -18.88 52.72 99 6 198
1886 SI MM 1885-12-27 00:00:00 NR -19.17 52.63 344 324 _____P________ -1 -19.17 52.63 99 6 194
1886 SI MM 03:00:00 NR -19.47 52.56 324 316 _____P________ -1 -19.47 52.56 99 6 191
1886 SI MM 06:00:00 NR -19.80 52.50 reunion 316 306 _____O________ -1 -19.80 52.50 99 9.90 7 192
1886 SI MM 09:00:00 NR -20.14 52.41 312 301 _____P________ -1 -20.14 52.41 99 7 193
1886 SI MM 12:00:00 NR -20.49 52.34 308 302 _____P________ -1 -20.49 52.34 99 7 189
1886 SI MM 15:00:00 NR -20.87 52.28 301 300 _____P________ -1 -20.87 52.28 99 8 186
1886 SI MM 18:00:00 NR -21.26 52.25 301 301 _____P________ -1 -21.26 52.25 99 8 0
1886 SI MM 21:00:00 NR -21.67 52.25 307 307 _____P________ -1 -21.67 52.25 99 8 178
1886 SI MM 1885-12-28 00:00:00 NR -22.10 52.29 319 319 _____P________ -1 -22.10 52.29 99 9 173
1886 SI MM 03:00:00 NR -22.54 52.37 327 327 _____P________ -1 -22.54 52.37 99 9 168
1886 SI MM 06:00:00 NR -23.00 52.50 reunion 345 345 _____O________ -1 -23.00 52.50 99 9.90 9 166
1886 SI MM 09:00:00 NR -23.44 52.61 363 363 _____P________ -1 -23.44 52.61 99 9 165
1886 SI MM 12:00:00 NR -23.90 52.76 387 387 _____P________ -1 -23.90 52.76 99 10 161
1886 SI MM 15:00:00 NR -24.37 52.96 419 419 _____P________ -1 -24.37 52.96 99 11 157
1886 SI MM 18:00:00 NR -24.86 53.21 456 451 _____P________ -1 -24.86 53.21 99 11 152
1886 SI MM 21:00:00 NR -25.37 53.54 493 489 _____P________ -1 -25.37 53.54 99 12 148
1886 SI MM 1885-12-29 00:00:00 NR -25.89 53.94 531 528 _____P________ -1 -25.89 53.94 99 13 143
1886 SI MM 03:00:00 NR -26.44 54.42 571 571 _____P________ -1 -26.44 54.42 99 15 139
1886 SI MM 06:00:00 NR -27.00 55.00 reunion 628 628 _____O________ -1 -27.00 55.00 99 9.90 17 135
1886 SI MM 09:00:00 NR -27.64 55.76 693 693 _____P________ -1 -27.64 55.76 99 20 132
1886 SI MM 12:00:00 NR -28.32 56.64 777 777 _____P________ -1 -28.32 56.64 99 21 130
1886 SI MM 15:00:00 NR -29.00 57.60 872 872 _____P________ -1 -29.00 57.60 99 22 128
1886 SI MM 18:00:00 NR -29.66 58.61 974 974 _____P________ -1 -29.66 58.61 99 22 126
1886 SI MM 21:00:00 NR -30.30 59.65 1071 1071 _____P________ -1 -30.30 59.65 99 22 125
1886 SI MM 1885-12-30 00:00:00 NR -30.90 60.67 1176 1176 _____P________ -1 -30.90 60.67 99 20 124
1886 SI MM 03:00:00 NR -31.44 61.63 1265 1265 _____P________ -1 -31.44 61.63 99 19 123
1886 SI MM 06:00:00 NR -31.90 62.50 reunion 1357 1357 _____O________ -1 -31.90 62.50 99 9.90 16 122
1886 SI MM 09:00:00 NR -32.28 63.25 1426 1426 _____P________ -1 -32.28 63.25 99 14 121
1886 SI MM 12:00:00 NR -32.59 63.88 1484 1484 _____P________ -1 -32.59 63.88 99 11 119
1886 SI MM 15:00:00 NR -32.83 64.41 1525 1525 _____P________ -1 -32.83 64.41 99 9 118
1886 SI MM 18:00:00 NR -33.03 64.85 1562 1562 _____P________ -1 -33.03 64.85 99 8 117
1886 SI MM 21:00:00 NR -33.18 65.22 1599 1599 _____P________ -1 -33.18 65.22 99 6 115
1886 SI MM 1885-12-31 00:00:00 NR -33.30 65.54 1623 1623 _____P________ -1 -33.30 65.54 99 6 114
1886 SI MM 03:00:00 NR -33.41 65.83 1647 1647 _____P________ -1 -33.41 65.83 99 5 113
1886 SI MM 06:00:00 NR -33.50 66.10 reunion 1671 _____O________ -1 -33.50 66.10 99 9.90 5 113